sensor_id;sensor_type;location;lat;lon;timestamp;temperature;humidity
4435;DHT22;46552;52.150;8.428;2024-01-06T00:00:25;7.10;99.90
4435;DHT22;46552;52.150;8.428;2024-01-06T00:02:52;7.10;99.90
4435;DHT22;46552;52.150;8.428;2024-01-06T00:05:19;7.10;99.90
4435;DHT22;46552;52.150;8.428;2024-01-06T00:07:46;7.10;99.90
4435;DHT22;46552;52.150;8.428;2024-01-06T00:10:14;7.10;99.90
4435;DHT22;46552;52.150;8.428;2024-01-06T00:12:42;7.10;99.90
4435;DHT22;46552;52.150;8.428;2024-01-06T00:15:10;7.10;99.90
4435;DHT22;46552;52.150;8.428;2024-01-06T00:17:38;7.00;99.90
4435;DHT22;46552;52.150;8.428;2024-01-06T00:20:07;7.10;99.90
4435;DHT22;46552;52.150;8.428;2024-01-06T00:22:35;7.00;99.90
4435;DHT22;46552;52.150;8.428;2024-01-06T00:25:02;7.00;99.90
4435;DHT22;46552;52.150;8.428;2024-01-06T00:27:29;7.00;99.90
4435;DHT22;46552;52.150;8.428;2024-01-06T00:29:57;7.00;99.90
4435;DHT22;46552;52.150;8.428;2024-01-06T00:32:25;7.00;99.90
4435;DHT22;46552;52.150;8.428;2024-01-06T00:34:53;7.00;99.90
4435;DHT22;46552;52.150;8.428;2024-01-06T00:37:20;6.90;99.90
4435;DHT22;46552;52.150;8.428;2024-01-06T00:39:47;6.90;99.90
4435;DHT22;46552;52.150;8.428;2024-01-06T00:42:14;6.90;99.90
4435;DHT22;46552;52.150;8.428;2024-01-06T00:44:42;6.90;99.90
4435;DHT22;46552;52.150;8.428;2024-01-06T00:47:11;6.90;99.90
4435;DHT22;46552;52.150;8.428;2024-01-06T00:49:41;6.90;99.90
4435;DHT22;46552;52.150;8.428;2024-01-06T00:52:08;6.90;99.90
4435;DHT22;46552;52.150;8.428;2024-01-06T00:54:35;6.90;99.90
4435;DHT22;46552;52.150;8.428;2024-01-06T00:57:03;6.90;99.90
4435;DHT22;46552;52.150;8.428;2024-01-06T00:59:31;6.80;99.90
4435;DHT22;46552;52.150;8.428;2024-01-06T01:01:58;6.90;99.90
4435;DHT22;46552;52.150;8.428;2024-01-06T01:04:26;6.90;99.90
4435;DHT22;46552;52.150;8.428;2024-01-06T01:06:53;6.90;99.90
4435;DHT22;46552;52.150;8.428;2024-01-06T01:09:20;6.90;99.90
4435;DHT22;46552;52.150;8.428;2024-01-06T01:11:47;6.90;99.90
4435;DHT22;46552;52.150;8.428;2024-01-06T01:14:14;6.80;99.90
4435;DHT22;46552;52.150;8.428;2024-01-06T01:16:44;6.90;99.90
4435;DHT22;46552;52.150;8.428;2024-01-06T01:19:11;6.90;99.90
4435;DHT22;46552;52.150;8.428;2024-01-06T01:21:38;6.90;99.90
4435;DHT22;46552;52.150;8.428;2024-01-06T01:24:07;6.90;99.90
4435;DHT22;46552;52.150;8.428;2024-01-06T01:26:34;6.90;99.90
4435;DHT22;46552;52.150;8.428;2024-01-06T01:29:01;6.90;99.90
4435;DHT22;46552;52.150;8.428;2024-01-06T01:31:29;6.90;99.90
4435;DHT22;46552;52.150;8.428;2024-01-06T01:33:56;6.90;99.90
4435;DHT22;46552;52.150;8.428;2024-01-06T01:36:23;6.80;99.90
4435;DHT22;46552;52.150;8.428;2024-01-06T01:38:50;6.90;99.90
4435;DHT22;46552;52.150;8.428;2024-01-06T01:41:18;6.90;99.90
4435;DHT22;46552;52.150;8.428;2024-01-06T01:43:46;6.90;99.90
4435;DHT22;46552;52.150;8.428;2024-01-06T01:46:13;6.90;99.90
4435;DHT22;46552;52.150;8.428;2024-01-06T01:48:40;6.90;99.90
4435;DHT22;46552;52.150;8.428;2024-01-06T01:51:08;6.90;99.90
4435;DHT22;46552;52.150;8.428;2024-01-06T01:53:36;6.90;99.90
4435;DHT22;46552;52.150;8.428;2024-01-06T01:56:04;6.80;99.90
4435;DHT22;46552;52.150;8.428;2024-01-06T01:58:33;6.80;99.90
4435;DHT22;46552;52.150;8.428;2024-01-06T02:01:01;6.70;99.90
4435;DHT22;46552;52.150;8.428;2024-01-06T02:03:29;6.70;99.90
4435;DHT22;46552;52.150;8.428;2024-01-06T02:05:57;6.70;99.90
4435;DHT22;46552;52.150;8.428;2024-01-06T02:08:25;6.60;99.90
4435;DHT22;46552;52.150;8.428;2024-01-06T02:10:54;6.60;99.90
4435;DHT22;46552;52.150;8.428;2024-01-06T02:13:22;6.60;99.90
4435;DHT22;46552;52.150;8.428;2024-01-06T02:15:52;6.60;99.90
4435;DHT22;46552;52.150;8.428;2024-01-06T02:18:21;6.60;99.90
4435;DHT22;46552;52.150;8.428;2024-01-06T02:20:49;6.60;99.90
4435;DHT22;46552;52.150;8.428;2024-01-06T02:23:17;6.60;99.90
4435;DHT22;46552;52.150;8.428;2024-01-06T02:25:44;6.60;99.90
4435;DHT22;46552;52.150;8.428;2024-01-06T02:28:11;6.60;99.90
4435;DHT22;46552;52.150;8.428;2024-01-06T02:30:39;6.60;99.90
4435;DHT22;46552;52.150;8.428;2024-01-06T02:33:06;6.60;99.90
4435;DHT22;46552;52.150;8.428;2024-01-06T02:35:33;6.60;99.90
4435;DHT22;46552;52.150;8.428;2024-01-06T02:38:00;6.60;99.90
4435;DHT22;46552;52.150;8.428;2024-01-06T02:40:29;6.50;99.90
4435;DHT22;46552;52.150;8.428;2024-01-06T02:42:57;6.50;99.90
4435;DHT22;46552;52.150;8.428;2024-01-06T02:45:25;6.60;99.90
4435;DHT22;46552;52.150;8.428;2024-01-06T02:47:52;6.60;99.90
4435;DHT22;46552;52.150;8.428;2024-01-06T02:50:20;6.60;99.90
4435;DHT22;46552;52.150;8.428;2024-01-06T02:52:47;6.60;99.90
4435;DHT22;46552;52.150;8.428;2024-01-06T02:55:14;6.60;99.90
4435;DHT22;46552;52.150;8.428;2024-01-06T02:57:43;6.60;99.90
4435;DHT22;46552;52.150;8.428;2024-01-06T03:00:11;6.50;99.90
4435;DHT22;46552;52.150;8.428;2024-01-06T03:02:38;6.50;99.90
4435;DHT22;46552;52.150;8.428;2024-01-06T03:05:09;6.50;99.90
4435;DHT22;46552;52.150;8.428;2024-01-06T03:07:37;6.50;99.90
4435;DHT22;46552;52.150;8.428;2024-01-06T03:10:05;6.50;99.90
4435;DHT22;46552;52.150;8.428;2024-01-06T03:12:32;6.60;99.90
4435;DHT22;46552;52.150;8.428;2024-01-06T03:15:01;6.60;99.90
4435;DHT22;46552;52.150;8.428;2024-01-06T03:17:28;6.50;99.90
4435;DHT22;46552;52.150;8.428;2024-01-06T03:19:56;6.50;99.90
4435;DHT22;46552;52.150;8.428;2024-01-06T03:22:24;6.50;99.90
4435;DHT22;46552;52.150;8.428;2024-01-06T03:24:51;6.60;99.90
4435;DHT22;46552;52.150;8.428;2024-01-06T03:27:18;6.60;99.90
4435;DHT22;46552;52.150;8.428;2024-01-06T03:29:46;6.60;99.90
4435;DHT22;46552;52.150;8.428;2024-01-06T03:32:15;6.50;99.90
4435;DHT22;46552;52.150;8.428;2024-01-06T03:34:43;6.50;99.90
4435;DHT22;46552;52.150;8.428;2024-01-06T03:37:10;6.50;99.90
4435;DHT22;46552;52.150;8.428;2024-01-06T03:39:37;6.50;99.90
4435;DHT22;46552;52.150;8.428;2024-01-06T03:42:05;6.60;99.90
4435;DHT22;46552;52.150;8.428;2024-01-06T03:44:33;6.60;99.90
4435;DHT22;46552;52.150;8.428;2024-01-06T03:47:01;6.50;99.90
4435;DHT22;46552;52.150;8.428;2024-01-06T03:49:29;6.50;99.90
4435;DHT22;46552;52.150;8.428;2024-01-06T03:51:57;6.50;99.90
4435;DHT22;46552;52.150;8.428;2024-01-06T03:54:24;6.50;99.90
4435;DHT22;46552;52.150;8.428;2024-01-06T03:56:53;6.50;99.90
4435;DHT22;46552;52.150;8.428;2024-01-06T03:59:20;6.50;99.90
4435;DHT22;46552;52.150;8.428;2024-01-06T04:01:48;6.50;99.90
4435;DHT22;46552;52.150;8.428;2024-01-06T04:04:15;6.40;99.90
4435;DHT22;46552;52.150;8.428;2024-01-06T04:06:43;6.40;99.90
4435;DHT22;46552;52.150;8.428;2024-01-06T04:09:11;6.40;99.90
4435;DHT22;46552;52.150;8.428;2024-01-06T04:11:38;6.40;99.90
4435;DHT22;46552;52.150;8.428;2024-01-06T04:14:05;6.40;99.90
4435;DHT22;46552;52.150;8.428;2024-01-06T04:16:32;6.40;99.90
4435;DHT22;46552;52.150;8.428;2024-01-06T04:18:59;6.40;99.90
4435;DHT22;46552;52.150;8.428;2024-01-06T04:21:28;6.30;99.90
4435;DHT22;46552;52.150;8.428;2024-01-06T04:23:57;6.40;99.90
4435;DHT22;46552;52.150;8.428;2024-01-06T04:26:24;6.50;99.90
4435;DHT22;46552;52.150;8.428;2024-01-06T04:28:52;6.50;99.90
4435;DHT22;46552;52.150;8.428;2024-01-06T04:31:19;6.50;99.90
4435;DHT22;46552;52.150;8.428;2024-01-06T04:33:46;6.50;99.90
4435;DHT22;46552;52.150;8.428;2024-01-06T04:36:13;6.50;99.90
4435;DHT22;46552;52.150;8.428;2024-01-06T04:38:40;6.40;99.90
4435;DHT22;46552;52.150;8.428;2024-01-06T04:41:09;6.40;99.90
4435;DHT22;46552;52.150;8.428;2024-01-06T04:43:36;6.40;99.90
4435;DHT22;46552;52.150;8.428;2024-01-06T04:46:04;6.40;99.90
4435;DHT22;46552;52.150;8.428;2024-01-06T04:48:31;6.40;99.90
4435;DHT22;46552;52.150;8.428;2024-01-06T04:50:59;6.40;99.90
4435;DHT22;46552;52.150;8.428;2024-01-06T04:53:29;6.40;99.90
4435;DHT22;46552;52.150;8.428;2024-01-06T04:55:56;6.40;99.90
4435;DHT22;46552;52.150;8.428;2024-01-06T04:58:24;6.40;99.90
4435;DHT22;46552;52.150;8.428;2024-01-06T05:00:51;6.40;99.90
4435;DHT22;46552;52.150;8.428;2024-01-06T05:03:19;6.40;99.90
4435;DHT22;46552;52.150;8.428;2024-01-06T05:05:45;6.30;99.90
4435;DHT22;46552;52.150;8.428;2024-01-06T05:08:12;6.30;99.90
4435;DHT22;46552;52.150;8.428;2024-01-06T05:10:39;6.30;99.90
4435;DHT22;46552;52.150;8.428;2024-01-06T05:13:07;6.20;99.90
4435;DHT22;46552;52.150;8.428;2024-01-06T05:15:36;6.20;99.90
4435;DHT22;46552;52.150;8.428;2024-01-06T05:18:03;6.10;99.90
4435;DHT22;46552;52.150;8.428;2024-01-06T05:20:30;6.10;99.90
4435;DHT22;46552;52.150;8.428;2024-01-06T05:22:58;6.10;99.90
4435;DHT22;46552;52.150;8.428;2024-01-06T05:25:25;6.10;99.90
4435;DHT22;46552;52.150;8.428;2024-01-06T05:27:52;6.00;99.90
4435;DHT22;46552;52.150;8.428;2024-01-06T05:30:20;6.00;99.90
4435;DHT22;46552;52.150;8.428;2024-01-06T05:32:49;5.90;99.90
4435;DHT22;46552;52.150;8.428;2024-01-06T05:35:17;6.00;99.90
4435;DHT22;46552;52.150;8.428;2024-01-06T05:37:44;6.00;99.90
4435;DHT22;46552;52.150;8.428;2024-01-06T05:40:11;6.00;99.90
4435;DHT22;46552;52.150;8.428;2024-01-06T05:42:38;6.00;99.90
4435;DHT22;46552;52.150;8.428;2024-01-06T05:45:05;6.00;99.90
4435;DHT22;46552;52.150;8.428;2024-01-06T05:47:32;6.00;99.90
4435;DHT22;46552;52.150;8.428;2024-01-06T05:50:01;6.00;99.90
4435;DHT22;46552;52.150;8.428;2024-01-06T05:52:28;6.00;99.90
4435;DHT22;46552;52.150;8.428;2024-01-06T05:54:55;5.90;99.90
4435;DHT22;46552;52.150;8.428;2024-01-06T05:57:23;5.90;99.90
4435;DHT22;46552;52.150;8.428;2024-01-06T05:59:51;5.90;99.90
4435;DHT22;46552;52.150;8.428;2024-01-06T06:02:18;5.90;99.90
4435;DHT22;46552;52.150;8.428;2024-01-06T06:04:45;5.90;99.90
4435;DHT22;46552;52.150;8.428;2024-01-06T06:07:14;5.90;99.90
4435;DHT22;46552;52.150;8.428;2024-01-06T06:09:41;5.90;99.90
4435;DHT22;46552;52.150;8.428;2024-01-06T06:12:09;5.80;99.90
4435;DHT22;46552;52.150;8.428;2024-01-06T06:14:36;5.80;99.90
4435;DHT22;46552;52.150;8.428;2024-01-06T06:17:04;5.80;99.90
4435;DHT22;46552;52.150;8.428;2024-01-06T06:19:31;5.80;99.90
4435;DHT22;46552;52.150;8.428;2024-01-06T06:21:59;5.80;99.90
4435;DHT22;46552;52.150;8.428;2024-01-06T06:24:28;5.80;99.90
4435;DHT22;46552;52.150;8.428;2024-01-06T06:26:56;5.80;99.90
4435;DHT22;46552;52.150;8.428;2024-01-06T06:29:23;5.80;99.90
4435;DHT22;46552;52.150;8.428;2024-01-06T06:31:50;5.80;99.90
4435;DHT22;46552;52.150;8.428;2024-01-06T06:34:17;5.80;99.90
4435;DHT22;46552;52.150;8.428;2024-01-06T06:36:44;5.80;99.90
4435;DHT22;46552;52.150;8.428;2024-01-06T06:39:12;5.70;99.90
4435;DHT22;46552;52.150;8.428;2024-01-06T06:41:40;5.80;99.90
4435;DHT22;46552;52.150;8.428;2024-01-06T06:44:07;5.70;99.90
4435;DHT22;46552;52.150;8.428;2024-01-06T06:46:36;5.70;99.90
4435;DHT22;46552;52.150;8.428;2024-01-06T06:49:03;5.70;99.90
4435;DHT22;46552;52.150;8.428;2024-01-06T06:51:30;5.60;99.90
4435;DHT22;46552;52.150;8.428;2024-01-06T06:53:57;5.60;99.90
4435;DHT22;46552;52.150;8.428;2024-01-06T06:56:25;5.70;99.90
4435;DHT22;46552;52.150;8.428;2024-01-06T06:58:54;5.70;99.90
4435;DHT22;46552;52.150;8.428;2024-01-06T07:01:21;5.70;99.90
4435;DHT22;46552;52.150;8.428;2024-01-06T07:03:48;5.70;99.90
4435;DHT22;46552;52.150;8.428;2024-01-06T07:06:15;5.70;99.90
4435;DHT22;46552;52.150;8.428;2024-01-06T07:08:43;5.70;99.90
4435;DHT22;46552;52.150;8.428;2024-01-06T07:11:11;5.60;99.90
4435;DHT22;46552;52.150;8.428;2024-01-06T07:13:40;5.60;99.90
4435;DHT22;46552;52.150;8.428;2024-01-06T07:16:09;5.60;99.90
4435;DHT22;46552;52.150;8.428;2024-01-06T07:18:37;5.60;99.90
4435;DHT22;46552;52.150;8.428;2024-01-06T07:21:04;5.60;99.90
4435;DHT22;46552;52.150;8.428;2024-01-06T07:23:33;5.60;99.90
4435;DHT22;46552;52.150;8.428;2024-01-06T07:26:01;5.50;99.90
4435;DHT22;46552;52.150;8.428;2024-01-06T07:28:28;5.60;99.90
4435;DHT22;46552;52.150;8.428;2024-01-06T07:30:56;5.60;99.90
4435;DHT22;46552;52.150;8.428;2024-01-06T07:33:24;5.50;99.90
4435;DHT22;46552;52.150;8.428;2024-01-06T07:35:52;5.50;99.90
4435;DHT22;46552;52.150;8.428;2024-01-06T07:38:19;5.50;99.90
4435;DHT22;46552;52.150;8.428;2024-01-06T07:40:46;5.50;99.90
4435;DHT22;46552;52.150;8.428;2024-01-06T07:43:13;5.50;99.90
4435;DHT22;46552;52.150;8.428;2024-01-06T07:45:41;5.50;99.90
4435;DHT22;46552;52.150;8.428;2024-01-06T07:48:08;5.40;99.90
4435;DHT22;46552;52.150;8.428;2024-01-06T07:50:37;5.40;99.90
4435;DHT22;46552;52.150;8.428;2024-01-06T07:53:04;5.40;99.90
4435;DHT22;46552;52.150;8.428;2024-01-06T07:55:31;5.40;99.90
4435;DHT22;46552;52.150;8.428;2024-01-06T07:57:58;5.40;99.90
4435;DHT22;46552;52.150;8.428;2024-01-06T08:00:27;5.40;99.90
4435;DHT22;46552;52.150;8.428;2024-01-06T08:02:56;5.30;99.90
4435;DHT22;46552;52.150;8.428;2024-01-06T08:05:23;5.30;99.90
4435;DHT22;46552;52.150;8.428;2024-01-06T08:07:52;5.30;99.90
4435;DHT22;46552;52.150;8.428;2024-01-06T08:10:19;5.30;99.90
4435;DHT22;46552;52.150;8.428;2024-01-06T08:12:46;5.30;99.90
4435;DHT22;46552;52.150;8.428;2024-01-06T08:15:14;5.30;99.90
4435;DHT22;46552;52.150;8.428;2024-01-06T08:17:41;5.30;99.90
4435;DHT22;46552;52.150;8.428;2024-01-06T08:20:09;5.30;99.90
4435;DHT22;46552;52.150;8.428;2024-01-06T08:22:36;5.40;99.90
4435;DHT22;46552;52.150;8.428;2024-01-06T08:25:06;5.40;99.90
4435;DHT22;46552;52.150;8.428;2024-01-06T08:27:33;5.30;99.90
4435;DHT22;46552;52.150;8.428;2024-01-06T08:30:00;5.40;99.90
4435;DHT22;46552;52.150;8.428;2024-01-06T08:32:29;5.40;99.90
4435;DHT22;46552;52.150;8.428;2024-01-06T08:34:56;5.40;99.90
4435;DHT22;46552;52.150;8.428;2024-01-06T08:37:23;5.40;99.90
4435;DHT22;46552;52.150;8.428;2024-01-06T08:39:50;5.30;99.90
4435;DHT22;46552;52.150;8.428;2024-01-06T08:42:19;5.30;99.90
4435;DHT22;46552;52.150;8.428;2024-01-06T08:44:47;5.30;99.90
4435;DHT22;46552;52.150;8.428;2024-01-06T08:47:14;5.30;99.90
4435;DHT22;46552;52.150;8.428;2024-01-06T08:49:41;5.30;99.90
4435;DHT22;46552;52.150;8.428;2024-01-06T08:52:08;5.20;99.90
4435;DHT22;46552;52.150;8.428;2024-01-06T08:54:35;5.20;99.90
4435;DHT22;46552;52.150;8.428;2024-01-06T08:57:03;5.20;99.90
4435;DHT22;46552;52.150;8.428;2024-01-06T08:59:32;5.20;99.90
4435;DHT22;46552;52.150;8.428;2024-01-06T09:02:00;5.20;99.90
4435;DHT22;46552;52.150;8.428;2024-01-06T09:04:27;5.20;99.90
4435;DHT22;46552;52.150;8.428;2024-01-06T09:06:54;5.20;99.90
4435;DHT22;46552;52.150;8.428;2024-01-06T09:09:21;5.20;99.90
4435;DHT22;46552;52.150;8.428;2024-01-06T09:11:49;5.20;99.90
4435;DHT22;46552;52.150;8.428;2024-01-06T09:14:17;5.20;99.90
4435;DHT22;46552;52.150;8.428;2024-01-06T09:16:46;5.30;99.90
4435;DHT22;46552;52.150;8.428;2024-01-06T09:19:14;5.30;99.90
4435;DHT22;46552;52.150;8.428;2024-01-06T09:21:42;5.30;99.90
4435;DHT22;46552;52.150;8.428;2024-01-06T09:24:09;5.20;99.90
4435;DHT22;46552;52.150;8.428;2024-01-06T09:26:36;5.20;99.90
4435;DHT22;46552;52.150;8.428;2024-01-06T09:29:04;5.20;99.90
4435;DHT22;46552;52.150;8.428;2024-01-06T09:31:31;5.30;99.90
4435;DHT22;46552;52.150;8.428;2024-01-06T09:34:01;5.30;99.90
4435;DHT22;46552;52.150;8.428;2024-01-06T09:36:30;5.30;99.90
4435;DHT22;46552;52.150;8.428;2024-01-06T09:38:57;5.30;99.90
4435;DHT22;46552;52.150;8.428;2024-01-06T09:41:25;5.20;99.90
4435;DHT22;46552;52.150;8.428;2024-01-06T09:43:52;5.20;99.90
4435;DHT22;46552;52.150;8.428;2024-01-06T09:46:24;5.20;99.90
4435;DHT22;46552;52.150;8.428;2024-01-06T09:48:52;5.20;99.90
4435;DHT22;46552;52.150;8.428;2024-01-06T09:51:22;5.30;99.90
4435;DHT22;46552;52.150;8.428;2024-01-06T09:53:56;5.30;99.90
4435;DHT22;46552;52.150;8.428;2024-01-06T09:56:25;5.30;99.90
4435;DHT22;46552;52.150;8.428;2024-01-06T09:58:52;5.30;99.90
4435;DHT22;46552;52.150;8.428;2024-01-06T10:01:19;5.30;99.90
4435;DHT22;46552;52.150;8.428;2024-01-06T10:03:47;5.20;99.90
4435;DHT22;46552;52.150;8.428;2024-01-06T10:06:15;5.20;99.90
4435;DHT22;46552;52.150;8.428;2024-01-06T10:08:44;5.20;99.90
4435;DHT22;46552;52.150;8.428;2024-01-06T10:11:11;5.20;99.90
4435;DHT22;46552;52.150;8.428;2024-01-06T10:13:39;5.20;99.90
4435;DHT22;46552;52.150;8.428;2024-01-06T10:16:07;5.20;99.90
4435;DHT22;46552;52.150;8.428;2024-01-06T10:18:34;5.10;99.90
4435;DHT22;46552;52.150;8.428;2024-01-06T10:21:03;5.20;99.90
4435;DHT22;46552;52.150;8.428;2024-01-06T10:23:33;5.20;99.90
4435;DHT22;46552;52.150;8.428;2024-01-06T10:26:02;5.20;99.90
4435;DHT22;46552;52.150;8.428;2024-01-06T10:28:29;5.20;99.90
4435;DHT22;46552;52.150;8.428;2024-01-06T10:30:56;5.30;99.90
4435;DHT22;46552;52.150;8.428;2024-01-06T10:33:25;5.20;99.90
4435;DHT22;46552;52.150;8.428;2024-01-06T10:35:53;5.30;99.90
4435;DHT22;46552;52.150;8.428;2024-01-06T10:38:22;5.30;99.90
4435;DHT22;46552;52.150;8.428;2024-01-06T10:40:59;5.30;99.90
4435;DHT22;46552;52.150;8.428;2024-01-06T10:43:30;5.40;99.90
4435;DHT22;46552;52.150;8.428;2024-01-06T10:46:03;5.40;99.90
4435;DHT22;46552;52.150;8.428;2024-01-06T10:48:31;5.40;99.90
4435;DHT22;46552;52.150;8.428;2024-01-06T10:50:59;5.40;99.90
4435;DHT22;46552;52.150;8.428;2024-01-06T10:53:28;5.40;99.90
4435;DHT22;46552;52.150;8.428;2024-01-06T10:55:57;5.40;99.90
4435;DHT22;46552;52.150;8.428;2024-01-06T10:58:25;5.40;99.90
4435;DHT22;46552;52.150;8.428;2024-01-06T11:00:56;5.40;99.90
4435;DHT22;46552;52.150;8.428;2024-01-06T11:03:24;5.40;99.90
4435;DHT22;46552;52.150;8.428;2024-01-06T11:05:51;5.40;99.90
4435;DHT22;46552;52.150;8.428;2024-01-06T11:08:21;5.40;99.90
4435;DHT22;46552;52.150;8.428;2024-01-06T11:10:49;5.40;99.90
4435;DHT22;46552;52.150;8.428;2024-01-06T11:13:22;5.30;99.90
4435;DHT22;46552;52.150;8.428;2024-01-06T11:15:51;5.40;99.90
4435;DHT22;46552;52.150;8.428;2024-01-06T11:18:35;5.40;99.90
4435;DHT22;46552;52.150;8.428;2024-01-06T11:21:19;5.30;99.90
4435;DHT22;46552;52.150;8.428;2024-01-06T11:24:15;5.40;99.90
4435;DHT22;46552;52.150;8.428;2024-01-06T11:26:49;5.40;99.90
4435;DHT22;46552;52.150;8.428;2024-01-06T11:29:17;5.50;99.90
4435;DHT22;46552;52.150;8.428;2024-01-06T11:32:24;5.50;99.90
4435;DHT22;46552;52.150;8.428;2024-01-06T11:34:53;5.60;99.90
4435;DHT22;46552;52.150;8.428;2024-01-06T11:37:28;5.60;99.90
4435;DHT22;46552;52.150;8.428;2024-01-06T11:40:02;5.70;99.90
4435;DHT22;46552;52.150;8.428;2024-01-06T11:42:32;5.70;99.90
4435;DHT22;46552;52.150;8.428;2024-01-06T11:45:06;5.70;99.90
4435;DHT22;46552;52.150;8.428;2024-01-06T11:47:33;5.70;99.90
4435;DHT22;46552;52.150;8.428;2024-01-06T11:50:03;5.80;99.90
4435;DHT22;46552;52.150;8.428;2024-01-06T11:52:32;5.80;99.90
4435;DHT22;46552;52.150;8.428;2024-01-06T11:55:00;5.80;99.90
4435;DHT22;46552;52.150;8.428;2024-01-06T11:57:28;5.80;99.90
4435;DHT22;46552;52.150;8.428;2024-01-06T11:59:56;5.80;99.90
4435;DHT22;46552;52.150;8.428;2024-01-06T12:02:23;5.80;99.90
4435;DHT22;46552;52.150;8.428;2024-01-06T12:04:52;5.90;99.90
4435;DHT22;46552;52.150;8.428;2024-01-06T12:07:21;5.90;99.90
4435;DHT22;46552;52.150;8.428;2024-01-06T12:09:50;5.90;99.90
4435;DHT22;46552;52.150;8.428;2024-01-06T12:12:18;5.90;99.90
4435;DHT22;46552;52.150;8.428;2024-01-06T12:14:45;5.90;99.90
4435;DHT22;46552;52.150;8.428;2024-01-06T12:17:12;5.90;99.90
4435;DHT22;46552;52.150;8.428;2024-01-06T12:19:41;5.90;99.90
4435;DHT22;46552;52.150;8.428;2024-01-06T12:22:12;6.00;99.90
4435;DHT22;46552;52.150;8.428;2024-01-06T12:24:41;6.00;99.90
4435;DHT22;46552;52.150;8.428;2024-01-06T12:27:09;6.00;99.90
4435;DHT22;46552;52.150;8.428;2024-01-06T12:29:38;6.00;99.90
4435;DHT22;46552;52.150;8.428;2024-01-06T12:32:06;6.00;99.90
4435;DHT22;46552;52.150;8.428;2024-01-06T12:34:34;6.10;99.90
4435;DHT22;46552;52.150;8.428;2024-01-06T12:37:02;6.10;99.90
4435;DHT22;46552;52.150;8.428;2024-01-06T12:39:30;6.10;99.90
4435;DHT22;46552;52.150;8.428;2024-01-06T12:42:01;6.00;99.90
4435;DHT22;46552;52.150;8.428;2024-01-06T12:44:29;6.00;99.90
4435;DHT22;46552;52.150;8.428;2024-01-06T12:46:58;5.90;99.90
4435;DHT22;46552;52.150;8.428;2024-01-06T12:49:25;5.80;99.90
4435;DHT22;46552;52.150;8.428;2024-01-06T12:51:52;5.80;99.90
4435;DHT22;46552;52.150;8.428;2024-01-06T12:54:20;5.80;99.90
4435;DHT22;46552;52.150;8.428;2024-01-06T12:56:47;5.70;99.90
4435;DHT22;46552;52.150;8.428;2024-01-06T12:59:16;5.70;99.90
4435;DHT22;46552;52.150;8.428;2024-01-06T13:01:44;5.70;99.90
4435;DHT22;46552;52.150;8.428;2024-01-06T13:04:11;5.70;99.90
4435;DHT22;46552;52.150;8.428;2024-01-06T13:06:39;5.70;99.90
4435;DHT22;46552;52.150;8.428;2024-01-06T13:09:06;5.70;99.90
4435;DHT22;46552;52.150;8.428;2024-01-06T13:11:35;5.70;99.90
4435;DHT22;46552;52.150;8.428;2024-01-06T13:14:02;5.70;99.90
4435;DHT22;46552;52.150;8.428;2024-01-06T13:16:31;5.70;99.90
4435;DHT22;46552;52.150;8.428;2024-01-06T13:18:58;5.70;99.90
4435;DHT22;46552;52.150;8.428;2024-01-06T13:21:26;5.60;99.90
4435;DHT22;46552;52.150;8.428;2024-01-06T13:23:54;5.60;99.90
4435;DHT22;46552;52.150;8.428;2024-01-06T13:26:26;5.60;99.90
4435;DHT22;46552;52.150;8.428;2024-01-06T13:28:54;5.50;99.90
4435;DHT22;46552;52.150;8.428;2024-01-06T13:31:22;5.50;99.90
4435;DHT22;46552;52.150;8.428;2024-01-06T13:33:50;5.50;99.90
4435;DHT22;46552;52.150;8.428;2024-01-06T13:36:20;5.60;99.90
4435;DHT22;46552;52.150;8.428;2024-01-06T13:38:47;5.60;99.90
4435;DHT22;46552;52.150;8.428;2024-01-06T13:41:14;5.60;99.90
4435;DHT22;46552;52.150;8.428;2024-01-06T13:43:42;5.60;99.90
4435;DHT22;46552;52.150;8.428;2024-01-06T13:46:10;5.60;99.90
4435;DHT22;46552;52.150;8.428;2024-01-06T13:48:37;5.60;99.90
4435;DHT22;46552;52.150;8.428;2024-01-06T13:51:06;5.50;99.90
4435;DHT22;46552;52.150;8.428;2024-01-06T13:53:33;5.50;99.90
4435;DHT22;46552;52.150;8.428;2024-01-06T13:56:01;5.50;99.90
4435;DHT22;46552;52.150;8.428;2024-01-06T13:58:28;5.60;99.90
4435;DHT22;46552;52.150;8.428;2024-01-06T14:00:55;5.60;99.90
4435;DHT22;46552;52.150;8.428;2024-01-06T14:03:22;5.60;99.90
4435;DHT22;46552;52.150;8.428;2024-01-06T14:05:49;5.50;99.90
4435;DHT22;46552;52.150;8.428;2024-01-06T14:08:20;5.50;99.90
4435;DHT22;46552;52.150;8.428;2024-01-06T14:10:47;5.50;99.90
4435;DHT22;46552;52.150;8.428;2024-01-06T14:13:14;5.50;99.90
4435;DHT22;46552;52.150;8.428;2024-01-06T14:15:42;5.50;99.90
4435;DHT22;46552;52.150;8.428;2024-01-06T14:18:09;5.50;99.90
4435;DHT22;46552;52.150;8.428;2024-01-06T14:20:38;5.50;99.90
4435;DHT22;46552;52.150;8.428;2024-01-06T14:23:06;5.50;99.90
4435;DHT22;46552;52.150;8.428;2024-01-06T14:25:37;5.50;99.90
4435;DHT22;46552;52.150;8.428;2024-01-06T14:28:05;5.50;99.90
4435;DHT22;46552;52.150;8.428;2024-01-06T14:30:32;5.40;99.90
4435;DHT22;46552;52.150;8.428;2024-01-06T14:33:00;5.40;99.90
4435;DHT22;46552;52.150;8.428;2024-01-06T14:35:27;5.40;99.90
4435;DHT22;46552;52.150;8.428;2024-01-06T14:37:54;5.40;99.90
4435;DHT22;46552;52.150;8.428;2024-01-06T14:40:22;5.40;99.90
4435;DHT22;46552;52.150;8.428;2024-01-06T14:42:51;5.30;99.90
4435;DHT22;46552;52.150;8.428;2024-01-06T14:45:18;5.30;99.90
4435;DHT22;46552;52.150;8.428;2024-01-06T14:47:47;5.30;99.90
4435;DHT22;46552;52.150;8.428;2024-01-06T14:50:17;5.30;99.90
4435;DHT22;46552;52.150;8.428;2024-01-06T14:52:46;5.30;99.90
4435;DHT22;46552;52.150;8.428;2024-01-06T14:55:13;5.30;99.90
4435;DHT22;46552;52.150;8.428;2024-01-06T14:57:40;5.30;99.90
4435;DHT22;46552;52.150;8.428;2024-01-06T15:00:10;5.30;99.90
4435;DHT22;46552;52.150;8.428;2024-01-06T15:02:38;5.30;99.90
4435;DHT22;46552;52.150;8.428;2024-01-06T15:05:06;5.30;99.90
4435;DHT22;46552;52.150;8.428;2024-01-06T15:07:33;5.30;99.90
4435;DHT22;46552;52.150;8.428;2024-01-06T15:10:01;5.20;99.90
4435;DHT22;46552;52.150;8.428;2024-01-06T15:12:29;5.20;99.90
4435;DHT22;46552;52.150;8.428;2024-01-06T15:14:56;5.20;99.90
4435;DHT22;46552;52.150;8.428;2024-01-06T15:17:25;5.20;99.90
4435;DHT22;46552;52.150;8.428;2024-01-06T15:19:53;5.10;99.90
4435;DHT22;46552;52.150;8.428;2024-01-06T15:22:21;5.20;99.90
4435;DHT22;46552;52.150;8.428;2024-01-06T15:24:49;5.10;99.90
4435;DHT22;46552;52.150;8.428;2024-01-06T15:27:16;5.10;99.90
4435;DHT22;46552;52.150;8.428;2024-01-06T15:29:43;5.10;99.90
4435;DHT22;46552;52.150;8.428;2024-01-06T15:32:11;5.10;99.90
4435;DHT22;46552;52.150;8.428;2024-01-06T15:34:40;5.10;99.90
4435;DHT22;46552;52.150;8.428;2024-01-06T15:37:07;5.10;99.90
4435;DHT22;46552;52.150;8.428;2024-01-06T15:39:35;5.10;99.90
4435;DHT22;46552;52.150;8.428;2024-01-06T15:42:02;5.10;99.90
4435;DHT22;46552;52.150;8.428;2024-01-06T15:44:30;5.00;99.90
4435;DHT22;46552;52.150;8.428;2024-01-06T15:46:59;5.00;99.90
4435;DHT22;46552;52.150;8.428;2024-01-06T15:49:27;5.00;99.90
4435;DHT22;46552;52.150;8.428;2024-01-06T15:51:56;5.00;99.90
4435;DHT22;46552;52.150;8.428;2024-01-06T15:54:24;5.00;99.90
4435;DHT22;46552;52.150;8.428;2024-01-06T15:56:53;5.00;99.90
4435;DHT22;46552;52.150;8.428;2024-01-06T15:59:20;5.00;99.90
4435;DHT22;46552;52.150;8.428;2024-01-06T16:01:47;5.00;99.90
4435;DHT22;46552;52.150;8.428;2024-01-06T16:04:14;5.00;99.90
4435;DHT22;46552;52.150;8.428;2024-01-06T16:06:41;5.00;99.90